createdAt,value
2022-11-07T00:00:24.996Z,10.27
2022-11-07T00:03:27.488Z,11.45
2022-11-07T00:06:30.043Z,10.80
2022-11-07T00:09:32.854Z,11.27
2022-11-07T00:12:36.623Z,9.93
2022-11-07T00:15:39.165Z,9.43
2022-11-07T00:18:41.637Z,10.30
2022-11-07T00:21:44.993Z,9.30
2022-11-07T00:25:03.633Z,10.70
2022-11-07T00:28:06.963Z,10.80
2022-11-07T00:31:11.312Z,10.27
2022-11-07T00:34:14.282Z,10.75
2022-11-07T00:37:17.009Z,10.57
2022-11-07T00:40:19.573Z,10.90
2022-11-07T00:43:22.730Z,10.98
2022-11-07T00:46:25.431Z,9.77
2022-11-07T00:49:30.315Z,13.63
2022-11-07T00:52:33.159Z,9.95
2022-11-07T00:55:36.305Z,10.30
2022-11-07T00:58:39.069Z,9.15
2022-11-07T01:01:41.679Z,10.50
2022-11-07T01:05:02.990Z,12.00
2022-11-07T01:08:06.034Z,9.52
2022-11-07T01:11:08.817Z,10.70
2022-11-07T01:14:12.605Z,11.27
2022-11-07T01:17:15.084Z,9.57
2022-11-07T01:20:17.748Z,10.30
2022-11-07T01:23:22.548Z,9.32
2022-11-07T01:26:25.073Z,11.07
2022-11-07T01:29:27.544Z,11.30
2022-11-07T01:32:29.957Z,10.83
2022-11-07T01:35:33.483Z,9.32
2022-11-07T01:38:39.434Z,10.13
2022-11-07T01:41:42.286Z,10.35
2022-11-07T01:44:50.754Z,10.98
2022-11-07T01:47:56.864Z,10.37
2022-11-07T01:50:59.652Z,10.90
2022-11-07T01:54:04.407Z,10.50
2022-11-07T01:57:12.251Z,10.32
2022-11-07T02:00:18.386Z,10.02
2022-11-07T02:03:21.432Z,9.33
2022-11-07T02:06:34.966Z,10.02
2022-11-07T02:09:37.792Z,10.07
2022-11-07T02:12:40.533Z,8.98
2022-11-07T02:15:42.979Z,10.82
2022-11-07T02:18:45.884Z,9.30
2022-11-07T02:22:04.508Z,10.55
2022-11-07T02:25:10.559Z,11.88
2022-11-07T02:28:15.343Z,10.10
2022-11-07T02:31:17.817Z,9.80
2022-11-07T02:34:20.323Z,10.87
2022-11-07T02:37:39.626Z,9.63
2022-11-07T02:40:44.261Z,9.95
2022-11-07T02:43:52.204Z,10.18
2022-11-07T02:46:55.023Z,9.70
2022-11-07T02:49:57.709Z,9.77
2022-11-07T02:53:00.541Z,10.30
2022-11-07T02:56:03.581Z,10.65
2022-11-07T02:59:06.168Z,9.98
2022-11-07T03:02:09.960Z,10.23
2022-11-07T03:05:17.581Z,10.93
2022-11-07T03:08:20.075Z,10.27
2022-11-07T03:11:22.578Z,9.05
2022-11-07T03:14:25.441Z,9.25
2022-11-07T03:17:28.231Z,9.93
2022-11-07T03:20:31.334Z,10.47
2022-11-07T03:23:35.309Z,8.88
2022-11-07T03:26:37.741Z,9.57
2022-11-07T03:29:40.179Z,10.32
2022-11-07T03:32:43.208Z,10.40
2022-11-07T03:35:45.810Z,10.30
2022-11-07T03:38:48.297Z,10.80
2022-11-07T03:41:51.573Z,9.32
2022-11-07T03:44:54.039Z,11.32
2022-11-07T03:47:56.468Z,10.20
2022-11-07T03:50:59.004Z,9.97
2022-11-07T03:54:01.579Z,9.77
2022-11-07T03:57:04.016Z,11.07
2022-11-07T04:00:08.744Z,8.88
2022-11-07T04:03:17.457Z,9.50
2022-11-07T04:06:20.108Z,10.70
2022-11-07T04:09:22.664Z,9.50
2022-11-07T04:12:43.801Z,10.23
2022-11-07T04:16:05.343Z,10.63
2022-11-07T04:19:08.074Z,9.88
2022-11-07T04:22:10.559Z,11.10
2022-11-07T04:25:13.117Z,9.32
2022-11-07T04:28:17.946Z,10.63
2022-11-07T04:31:20.503Z,9.65
2022-11-07T04:34:22.907Z,9.93
2022-11-07T04:37:25.412Z,10.90
2022-11-07T04:40:29.203Z,10.57
2022-11-07T04:43:31.895Z,9.80
2022-11-07T04:46:34.343Z,10.35
2022-11-07T04:49:37.013Z,9.55
2022-11-07T04:52:41.465Z,11.70
2022-11-07T04:55:44.342Z,10.77
2022-11-07T04:58:46.847Z,11.25
2022-11-07T05:01:49.478Z,11.40
2022-11-07T05:04:52.991Z,11.38
2022-11-07T05:07:55.467Z,9.60
2022-11-07T05:10:57.974Z,9.57
2022-11-07T05:14:00.419Z,10.60
2022-11-07T05:17:03.868Z,9.93
2022-11-07T05:20:07.332Z,9.85
2022-11-07T05:23:14.049Z,11.20
2022-11-07T05:26:17.340Z,10.63
2022-11-07T05:29:19.824Z,9.77
2022-11-07T05:32:22.269Z,9.88
2022-11-07T05:35:24.877Z,10.50
2022-11-07T05:38:27.287Z,10.07
2022-11-07T05:41:29.763Z,9.55
2022-11-07T05:44:32.496Z,9.88
2022-11-07T05:47:35.297Z,9.30
2022-11-07T05:50:40.818Z,9.85
2022-11-07T05:53:43.428Z,9.50
2022-11-07T05:56:45.948Z,11.35
2022-11-07T05:59:48.502Z,11.40
2022-11-07T06:02:56.026Z,9.80
2022-11-07T06:05:59.106Z,10.93
2022-11-07T06:09:01.864Z,10.43
2022-11-07T06:12:04.976Z,10.43
2022-11-07T06:15:08.165Z,10.10
2022-11-07T06:18:19.348Z,10.02
2022-11-07T06:21:21.889Z,10.75
2022-11-07T06:24:24.403Z,9.77
2022-11-07T06:27:26.922Z,10.25
2022-11-07T06:30:30.151Z,10.73
2022-11-07T06:33:32.978Z,10.50
2022-11-07T06:36:35.563Z,10.93
2022-11-07T06:39:38.121Z,13.93
2022-11-07T06:42:40.886Z,10.05
2022-11-07T06:45:44.935Z,10.63
2022-11-07T06:48:48.844Z,11.18
2022-11-07T06:51:51.574Z,10.00
2022-11-07T06:54:54.164Z,11.40
2022-11-07T06:58:01.055Z,10.77
2022-11-07T07:01:06.589Z,13.90
2022-11-07T07:04:11.018Z,14.48
2022-11-07T07:07:13.585Z,12.77
2022-11-07T07:10:16.480Z,13.83
2022-11-07T07:13:19.270Z,13.38
2022-11-07T07:16:23.395Z,14.98
2022-11-07T07:19:27.906Z,15.95
2022-11-07T07:22:30.396Z,13.98
2022-11-07T07:25:33.199Z,14.20
2022-11-07T07:28:37.467Z,16.20
2022-11-07T07:31:41.010Z,14.85
2022-11-07T07:34:43.600Z,16.42
2022-11-07T07:37:50.888Z,15.15
2022-11-07T07:40:54.580Z,14.43
2022-11-07T07:43:57.093Z,13.88
2022-11-07T07:46:59.695Z,16.60
2022-11-07T07:50:02.884Z,16.05
2022-11-07T07:53:09.295Z,13.48
2022-11-07T07:56:18.767Z,19.93
2022-11-07T07:59:21.303Z,13.80
2022-11-07T08:02:24.125Z,14.13
2022-11-07T08:05:26.902Z,15.25
2022-11-07T08:08:32.628Z,16.25
2022-11-07T08:11:39.520Z,13.00
2022-11-07T08:14:42.095Z,18.42
2022-11-07T08:17:46.859Z,14.45
2022-11-07T08:20:54.942Z,15.98
2022-11-07T08:23:59.882Z,17.98
2022-11-07T08:27:03.818Z,13.63
2022-11-07T08:30:11.578Z,13.52
2022-11-07T08:33:20.783Z,19.85
2022-11-07T08:36:27.653Z,13.63
2022-11-07T08:39:30.399Z,15.68
2022-11-07T08:42:33.124Z,14.00
2022-11-07T08:45:35.587Z,16.17
2022-11-07T08:48:39.842Z,15.18
2022-11-07T08:51:43.231Z,15.18
2022-11-07T08:54:47.772Z,16.50
2022-11-07T08:57:50.922Z,17.50
2022-11-07T09:00:53.519Z,16.95
2022-11-07T09:03:58.259Z,14.07
2022-11-07T09:07:01.290Z,14.73
2022-11-07T09:10:04.557Z,22.25
2022-11-07T09:13:07.141Z,16.57
2022-11-07T09:16:10.552Z,14.32
2022-11-07T09:19:13.168Z,16.77
2022-11-07T09:22:16.206Z,17.25
2022-11-07T09:25:19.393Z,17.75
2022-11-07T09:28:22.202Z,17.70
2022-11-07T09:31:26.075Z,21.90
2022-11-07T09:34:28.607Z,22.55
2022-11-07T09:37:32.187Z,19.23
2022-11-07T09:41:02.240Z,15.93
2022-11-07T09:44:05.162Z,19.03
2022-11-07T09:47:34.114Z,17.38
2022-11-07T09:50:41.276Z,19.80
2022-11-07T09:53:47.269Z,17.27
2022-11-07T09:56:50.030Z,16.50
2022-11-07T10:00:01.212Z,19.33
2022-11-07T10:03:09.869Z,19.80
2022-11-07T10:06:29.800Z,16.73
2022-11-07T10:09:46.579Z,16.52
2022-11-07T10:13:05.322Z,16.40
2022-11-07T10:16:19.116Z,17.30
2022-11-07T10:19:21.839Z,22.55
2022-11-07T10:22:45.810Z,18.27
2022-11-07T10:26:06.956Z,14.98
2022-11-07T10:29:17.937Z,18.40
2022-11-07T10:32:39.066Z,16.83
2022-11-07T10:35:52.984Z,16.33
2022-11-07T10:38:56.909Z,17.88
2022-11-07T10:42:15.734Z,17.13
2022-11-07T10:45:20.236Z,15.82
2022-11-07T10:48:22.793Z,15.63
2022-11-07T10:51:39.385Z,18.95
2022-11-07T10:54:45.964Z,17.42
2022-11-07T10:58:04.298Z,16.95
2022-11-07T11:01:09.987Z,17.73
2022-11-07T11:04:22.219Z,15.77
2022-11-07T11:07:32.716Z,17.00
2022-11-07T11:10:39.669Z,16.25
2022-11-07T11:13:42.677Z,17.95
2022-11-07T11:16:47.110Z,17.85
2022-11-07T11:19:55.266Z,20.10
2022-11-07T11:22:59.896Z,14.82
2022-11-07T11:26:07.114Z,18.33
2022-11-07T11:29:33.257Z,17.60
2022-11-07T11:32:44.917Z,15.52
2022-11-07T11:35:51.893Z,17.80
2022-11-07T11:38:55.322Z,17.83
2022-11-07T11:42:00.435Z,22.88
2022-11-07T11:45:31.896Z,15.48
2022-11-07T11:49:17.809Z,19.42
2022-11-07T11:52:23.845Z,17.47
2022-11-07T11:55:39.916Z,18.50
2022-11-07T11:59:07.012Z,22.83
2022-11-07T12:02:16.449Z,17.63
2022-11-07T12:05:34.967Z,17.73
2022-11-07T12:09:07.922Z,17.70
2022-11-07T12:12:24.590Z,20.25
2022-11-07T12:16:01.082Z,16.13
2022-11-07T12:19:28.670Z,16.63
2022-11-07T12:22:36.936Z,17.80
2022-11-07T12:26:20.907Z,17.27
2022-11-07T12:29:28.002Z,16.75
2022-11-07T12:33:01.359Z,18.88
2022-11-07T12:36:14.963Z,16.45
2022-11-07T12:39:36.635Z,18.27
2022-11-07T12:43:00.035Z,18.37
2022-11-07T12:46:24.923Z,17.10
2022-11-07T12:50:07.262Z,19.27
2022-11-07T12:53:20.841Z,18.50
2022-11-07T12:56:31.902Z,17.48
2022-11-07T12:59:39.083Z,20.13
2022-11-07T13:03:29.002Z,19.17
2022-11-07T13:06:39.763Z,17.85
2022-11-07T13:09:56.177Z,18.20
2022-11-07T13:13:06.904Z,18.45
2022-11-07T13:16:25.333Z,16.27
2022-11-07T13:19:33.715Z,17.17
2022-11-07T13:22:39.861Z,19.55
2022-11-07T13:25:43.836Z,16.85
2022-11-07T13:29:02.694Z,17.00
2022-11-07T13:32:14.686Z,25.57
2022-11-07T13:35:22.856Z,18.75
2022-11-07T13:38:27.331Z,17.10
2022-11-07T13:41:31.759Z,17.55
2022-11-07T13:44:38.200Z,18.75
2022-11-07T13:47:43.164Z,19.23
2022-11-07T13:50:57.967Z,18.90
2022-11-07T13:54:33.975Z,17.83
2022-11-07T13:57:49.601Z,15.68
2022-11-07T14:00:52.737Z,14.82
2022-11-07T14:03:55.306Z,20.33
2022-11-07T14:07:02.681Z,18.98
2022-11-07T14:10:22.653Z,18.00
2022-11-07T14:13:34.714Z,19.60
2022-11-07T14:16:40.646Z,18.73
2022-11-07T14:19:43.307Z,16.80
2022-11-07T14:23:04.390Z,18.05
2022-11-07T14:26:25.968Z,20.15
2022-11-07T14:29:29.414Z,17.95
2022-11-07T14:32:35.877Z,14.90
2022-11-07T14:35:47.878Z,16.27
2022-11-07T14:38:52.948Z,20.30
2022-11-07T14:41:58.157Z,16.95
2022-11-07T14:45:01.333Z,17.70
2022-11-07T14:48:04.348Z,18.95
2022-11-07T14:51:07.021Z,15.87
2022-11-07T14:54:18.875Z,28.85
2022-11-07T14:57:21.805Z,18.98
2022-11-07T15:00:24.530Z,17.98
2022-11-07T15:03:32.904Z,21.75
2022-11-07T15:06:42.432Z,19.40
2022-11-07T15:09:46.497Z,17.52
2022-11-07T15:12:55.392Z,21.23
2022-11-07T15:16:05.652Z,13.32
2022-11-07T15:19:11.650Z,18.67
2022-11-07T15:22:36.500Z,14.37
2022-11-07T15:25:41.689Z,16.33
2022-11-07T15:28:48.517Z,13.60
2022-11-07T15:31:52.227Z,16.55
2022-11-07T15:35:23.139Z,16.38
2022-11-07T15:38:27.069Z,14.43
2022-11-07T15:41:29.693Z,16.65
2022-11-07T15:44:32.280Z,15.70
2022-11-07T15:47:35.057Z,17.00
2022-11-07T15:50:42.884Z,16.08
2022-11-07T15:53:45.431Z,14.60
2022-11-07T15:56:49.022Z,17.25
2022-11-07T15:59:51.602Z,15.38
2022-11-07T16:02:54.776Z,17.85
2022-11-07T16:06:01.803Z,20.70
2022-11-07T16:09:11.008Z,23.40
2022-11-07T16:12:16.030Z,17.42
2022-11-07T16:15:21.050Z,17.83
2022-11-07T16:18:23.664Z,18.13
2022-11-07T16:21:26.568Z,21.25
2022-11-07T16:24:29.703Z,15.03
2022-11-07T16:27:32.564Z,18.08
2022-11-07T16:30:35.935Z,18.77
2022-11-07T16:33:39.320Z,19.30
2022-11-07T16:36:42.421Z,18.73
2022-11-07T16:39:45.991Z,20.27
2022-11-07T16:42:49.102Z,16.08
2022-11-07T16:45:56.268Z,18.50
2022-11-07T16:49:08.589Z,17.05
2022-11-07T16:52:15.208Z,18.75
2022-11-07T16:55:20.864Z,17.33
2022-11-07T16:58:29.424Z,15.80
2022-11-07T17:01:32.908Z,16.70
2022-11-07T17:04:36.335Z,22.02
2022-11-07T17:07:39.427Z,18.63
2022-11-07T17:10:43.165Z,18.20
2022-11-07T17:13:47.510Z,17.33
2022-11-07T17:16:50.897Z,22.08
2022-11-07T17:19:54.152Z,19.23
2022-11-07T17:22:57.721Z,17.50
2022-11-07T17:26:03.080Z,18.80
2022-11-07T17:29:08.314Z,17.00
2022-11-07T17:32:12.350Z,17.10
2022-11-07T17:35:31.799Z,17.95
2022-11-07T17:38:35.978Z,16.65
2022-11-07T17:41:44.148Z,18.97
2022-11-07T17:44:47.672Z,19.92
2022-11-07T17:47:52.019Z,17.88
2022-11-07T17:50:55.762Z,17.77
2022-11-07T17:54:00.404Z,16.52
2022-11-07T17:57:09.137Z,17.53
2022-11-07T18:00:19.939Z,20.65
2022-11-07T18:03:23.762Z,16.42
2022-11-07T18:06:27.956Z,18.30
2022-11-07T18:09:33.495Z,17.67
2022-11-07T18:12:37.869Z,17.93
2022-11-07T18:15:41.402Z,20.08
2022-11-07T18:18:46.137Z,18.33
2022-11-07T18:21:49.901Z,15.55
2022-11-07T18:24:53.393Z,16.83
2022-11-07T18:28:00.447Z,15.60
2022-11-07T18:31:10.718Z,18.75
2022-11-07T18:34:14.425Z,15.05
2022-11-07T18:37:18.909Z,15.80
2022-11-07T18:40:22.621Z,16.38
2022-11-07T18:43:27.031Z,15.33
2022-11-07T18:46:34.570Z,15.75
2022-11-07T18:49:39.245Z,18.48
2022-11-07T18:52:42.499Z,17.58
2022-11-07T18:55:46.000Z,15.07
2022-11-07T18:58:50.629Z,15.83
2022-11-07T19:01:53.910Z,16.23
2022-11-07T19:04:57.766Z,17.85
2022-11-07T19:08:02.521Z,17.08
2022-11-07T19:11:11.046Z,15.60
2022-11-07T19:14:14.233Z,15.77
2022-11-07T19:17:17.646Z,17.25
2022-11-07T19:20:22.501Z,16.65
2022-11-07T19:23:26.353Z,15.15
2022-11-07T19:26:30.587Z,15.90
2022-11-07T19:29:34.867Z,16.43
2022-11-07T19:32:38.448Z,15.98
2022-11-07T19:35:42.883Z,15.35
2022-11-07T19:38:47.773Z,18.65
2022-11-07T19:41:52.206Z,18.90
2022-11-07T19:44:58.023Z,17.27
2022-11-07T19:48:01.627Z,15.35
2022-11-07T19:51:09.586Z,16.65
2022-11-07T19:54:14.147Z,16.33
2022-11-07T19:57:17.996Z,15.63
2022-11-07T20:00:27.263Z,13.63
2022-11-07T20:03:30.883Z,15.60
2022-11-07T20:06:38.020Z,13.73
2022-11-07T20:09:44.058Z,13.63
2022-11-07T20:12:48.223Z,15.43
2022-11-07T20:15:57.960Z,15.03
2022-11-07T20:19:01.919Z,14.02
2022-11-07T20:22:06.529Z,15.48
2022-11-07T20:25:10.412Z,16.13
2022-11-07T20:28:14.175Z,16.13
2022-11-07T20:31:22.285Z,13.60
2022-11-07T20:34:26.889Z,15.05
2022-11-07T20:37:30.490Z,16.88
2022-11-07T20:40:34.579Z,15.40
2022-11-07T20:43:38.238Z,14.80
2022-11-07T20:46:45.243Z,15.03
2022-11-07T20:49:50.159Z,17.17
2022-11-07T20:52:59.081Z,13.30
2022-11-07T20:56:05.770Z,14.82
2022-11-07T20:59:10.455Z,14.95
2022-11-07T21:02:14.213Z,15.47
2022-11-07T21:05:20.600Z,14.02
2022-11-07T21:08:24.112Z,15.68
2022-11-07T21:11:29.210Z,16.35
2022-11-07T21:14:32.802Z,13.88
2022-11-07T21:17:36.016Z,12.73
2022-11-07T21:20:40.202Z,13.77
2022-11-07T21:23:43.909Z,12.50
2022-11-07T21:26:47.030Z,16.52
2022-11-07T21:29:49.725Z,14.35
2022-11-07T21:32:52.627Z,13.73
2022-11-07T21:35:55.192Z,16.02
2022-11-07T21:38:59.370Z,14.73
2022-11-07T21:42:02.049Z,13.48
2022-11-07T21:45:04.940Z,13.27
2022-11-07T21:48:07.694Z,13.37
2022-11-07T21:51:21.717Z,12.50
2022-11-07T21:54:24.871Z,13.18
2022-11-07T21:57:27.511Z,12.65
2022-11-07T22:00:35.517Z,13.63
2022-11-07T22:04:08.967Z,13.13
2022-11-07T22:07:02.018Z,15.05
2022-11-07T22:10:05.745Z,13.07
2022-11-07T22:13:08.314Z,14.75
2022-11-07T22:16:17.003Z,13.90
2022-11-07T22:19:19.561Z,13.53
2022-11-07T22:22:23.217Z,14.27
2022-11-07T22:25:25.936Z,15.15
2022-11-07T22:28:28.419Z,14.07
2022-11-07T22:31:31.894Z,13.70
2022-11-07T22:34:34.445Z,13.40
2022-11-07T22:37:36.957Z,15.27
2022-11-07T22:40:46.327Z,15.60
2022-11-07T22:43:49.718Z,13.23
2022-11-07T22:46:52.218Z,16.27
2022-11-07T22:49:54.746Z,14.53
2022-11-07T22:52:57.444Z,14.63
2022-11-07T22:56:07.321Z,13.40
2022-11-07T22:59:10.950Z,11.40
2022-11-07T23:02:13.605Z,12.30
2022-11-07T23:05:16.115Z,13.70
2022-11-07T23:08:19.503Z,13.27
2022-11-07T23:11:45.776Z,12.52
2022-11-07T23:14:47.957Z,12.88
2022-11-07T23:17:50.407Z,13.82
2022-11-07T23:21:11.358Z,12.90
2022-11-07T23:24:13.922Z,13.60
2022-11-07T23:27:18.380Z,12.15
2022-11-07T23:30:21.233Z,13.02
2022-11-07T23:33:24.572Z,12.43
2022-11-07T23:36:28.125Z,12.07
2022-11-07T23:39:31.523Z,13.27
2022-11-07T23:42:34.980Z,11.43
2022-11-07T23:45:56.970Z,12.10
2022-11-07T23:49:18.584Z,12.55
2022-11-07T23:52:21.966Z,13.30
2022-11-07T23:55:41.613Z,10.95
2022-11-07T23:59:03.597Z,10.90
